Time;durP1;ratioP1;P1;durP2;ratioP2;P2;SDS_P1;SDS_P2;PMS_P1;PMS_P2;Temp;Humidity;BMP_temperature;BMP_pressure;BME280_temperature;BME280_humidity;BME280_pressure;Samples;Min_cycle;Max_cycle;Signal;HPM_P1;HPM_P2
2023/10/06 00:00:39;;;;;;;1.70;0.60;;;11.90;1.00;;;;;;5136696;27;20429;-55
2023/10/06 00:03:10;;;;;;;2.00;0.60;;;11.80;1.00;;;;;;5136813;27;20829;-57
2023/10/06 00:05:38;;;;;;;1.75;0.80;;;11.80;1.00;;;;;;5136482;27;20414;-57
2023/10/06 00:08:10;;;;;;;1.23;0.60;;;11.80;1.00;;;;;;5136535;27;20403;-57
2023/10/06 00:10:44;;;;;;;3.20;0.80;;;11.80;1.00;;;;;;5137245;27;20430;-57
2023/10/06 00:13:18;;;;;;;2.95;0.80;;;11.80;1.00;;;;;;5136750;27;20435;-58
2023/10/06 00:15:49;;;;;;;2.40;0.70;;;11.70;1.00;;;;;;5136901;27;20462;-57
2023/10/06 00:18:18;;;;;;;1.90;0.70;;;11.70;1.00;;;;;;5135806;27;20422;-57
2023/10/06 00:20:48;;;;;;;2.03;0.70;;;11.70;1.00;;;;;;5135429;27;20418;-55
2023/10/06 00:23:21;;;;;;;1.92;0.60;;;11.70;1.00;;;;;;5136072;27;20410;-57
2023/10/06 00:25:51;;;;;;;1.47;0.60;;;11.70;1.00;;;;;;5136521;27;20797;-58
2023/10/06 00:28:21;;;;;;;2.57;0.60;;;11.80;1.00;;;;;;5136598;27;20452;-57
2023/10/06 00:30:55;;;;;;;1.17;0.80;;;11.90;1.00;;;;;;5136362;27;20877;-55
2023/10/06 00:33:24;;;;;;;3.53;0.90;;;11.80;1.00;;;;;;5136667;27;20873;-58
2023/10/06 00:35:51;;;;;;;1.20;0.60;;;11.80;1.00;;;;;;5136683;27;20442;-58
2023/10/06 00:38:21;;;;;;;1.98;0.70;;;11.80;1.00;;;;;;5136238;27;20512;-58
2023/10/06 00:40:51;;;;;;;1.90;0.70;;;11.70;1.00;;;;;;5136060;27;20777;-57
2023/10/06 00:43:34;;;;;;;1.60;0.70;;;11.60;1.00;;;;;;5136120;27;20415;-57
2023/10/06 00:46:03;;;;;;;1.95;0.63;;;11.60;1.00;;;;;;5136229;27;20779;-56
2023/10/06 00:48:32;;;;;;;2.60;0.70;;;11.60;1.00;;;;;;5118973;27;20432;-55
2023/10/06 00:51:01;;;;;;;1.15;0.60;;;11.50;1.00;;;;;;5136546;27;20844;-55
2023/10/06 00:53:32;;;;;;;2.63;0.60;;;11.50;1.00;;;;;;5135913;27;20844;-55
2023/10/06 00:56:04;;;;;;;1.70;0.70;;;11.50;1.00;;;;;;5136171;28;20709;-57
2023/10/06 00:58:34;;;;;;;1.77;0.70;;;11.50;1.00;;;;;;5135886;28;20446;-58
2023/10/06 01:01:05;;;;;;;1.80;0.60;;;11.50;1.00;;;;;;5136505;28;20459;-57
2023/10/06 01:03:38;;;;;;;3.00;0.70;;;11.40;1.00;;;;;;5136440;28;20421;-55
2023/10/06 01:06:12;;;;;;;2.25;0.60;;;11.40;1.00;;;;;;5136123;28;20429;-57
2023/10/06 01:08:45;;;;;;;1.90;0.70;;;11.40;1.00;;;;;;5135703;28;20479;-56
2023/10/06 01:11:14;;;;;;;1.50;0.70;;;11.40;1.00;;;;;;5136513;28;20422;-57
2023/10/06 01:13:54;;;;;;;3.67;0.70;;;11.50;1.00;;;;;;5135890;28;20461;-57
2023/10/06 01:16:34;;;;;;;1.40;0.70;;;11.50;1.00;;;;;;5140082;27;20426;-57
2023/10/06 01:19:14;;;;;;;1.20;0.70;;;11.50;1.00;;;;;;5140177;27;20456;-57
2023/10/06 01:21:43;;;;;;;2.08;0.70;;;11.50;1.00;;;;;;5139820;27;20533;-57
2023/10/06 01:24:13;;;;;;;2.70;0.70;;;11.40;1.00;;;;;;5139203;27;20424;-57
2023/10/06 01:26:42;;;;;;;2.40;0.70;;;11.50;1.00;;;;;;5139764;27;20429;-57
2023/10/06 01:29:11;;;;;;;2.20;0.70;;;11.40;1.00;;;;;;5139994;27;20805;-57
2023/10/06 01:31:40;;;;;;;1.55;0.60;;;11.40;1.00;;;;;;5140438;27;20744;-57
2023/10/06 01:34:10;;;;;;;1.60;0.80;;;11.40;1.00;;;;;;5140192;27;20479;-56
2023/10/06 01:36:37;;;;;;;2.08;0.70;;;11.40;1.00;;;;;;5139828;27;20421;-56
2023/10/06 01:39:16;;;;;;;4.10;1.10;;;11.40;1.00;;;;;;5140020;27;20425;-57
2023/10/06 01:41:47;;;;;;;2.00;0.90;;;11.40;1.00;;;;;;5139144;27;20856;-55
2023/10/06 01:44:15;;;;;;;2.20;0.80;;;11.40;1.00;;;;;;5139688;27;20754;-55
2023/10/06 01:46:43;;;;;;;2.00;0.70;;;11.40;1.00;;;;;;5139497;27;20517;-56
2023/10/06 01:49:11;;;;;;;1.75;0.80;;;11.40;1.00;;;;;;5139623;27;20429;-55
2023/10/06 01:51:38;;;;;;;2.15;0.80;;;11.30;1.00;;;;;;5139243;27;20781;-56
2023/10/06 01:54:07;;;;;;;2.30;0.77;;;11.30;1.00;;;;;;5139661;27;20436;-57
2023/10/06 01:56:34;;;;;;;2.55;0.90;;;11.30;11.60;;;;;;5139575;27;20414;-56
2023/10/06 01:59:05;;;;;;;2.60;0.80;;;11.30;11.90;;;;;;5139784;27;20414;-57
2023/10/06 02:01:32;;;;;;;2.40;0.70;;;11.30;12.60;;;;;;5139531;27;20425;-57
2023/10/06 02:03:59;;;;;;;2.03;0.75;;;11.20;18.90;;;;;;5122780;27;20418;-56
2023/10/06 02:06:27;;;;;;;1.90;0.80;;;11.20;18.40;;;;;;5139072;27;20517;-57
2023/10/06 02:08:54;;;;;;;1.60;0.73;;;11.20;7.10;;;;;;5139508;27;20418;-57
2023/10/06 02:11:28;;;;;;;2.53;0.80;;;11.10;12.30;;;;;;5138539;27;20413;-53
2023/10/06 02:13:55;;;;;;;1.80;0.80;;;11.10;24.70;;;;;;5139024;27;20431;-55
2023/10/06 02:16:26;;;;;;;2.20;0.80;;;11.10;24.70;;;;;;5139009;27;20497;-58
2023/10/06 02:18:54;;;;;;;5.80;1.10;;;11.10;32.60;;;;;;5122184;27;20433;-58
2023/10/06 02:21:24;;;;;;;1.80;0.80;;;11.10;29.80;;;;;;5138638;27;20414;-58
2023/10/06 02:23:52;;;;;;;3.78;0.90;;;11.10;32.30;;;;;;5139080;27;20433;-56
2023/10/06 02:26:19;;;;;;;3.20;0.90;;;11.00;31.20;;;;;;5137632;27;20417;-58
2023/10/06 02:28:49;;;;;;;2.15;0.82;;;11.00;30.60;;;;;;5138633;27;20726;-57
2023/10/06 02:31:21;;;;;;;2.28;0.90;;;11.00;30.80;;;;;;5138559;27;20418;-59
2023/10/06 02:33:51;;;;;;;3.10;0.90;;;11.00;36.40;;;;;;5138822;27;20429;-57
2023/10/06 02:36:21;;;;;;;2.83;0.90;;;11.00;31.60;;;;;;5137715;27;20438;-59
2023/10/06 02:38:48;;;;;;;3.00;0.90;;;11.00;30.60;;;;;;5130176;27;20528;-56
2023/10/06 02:41:19;;;;;;;2.08;0.85;;;10.90;28.70;;;;;;5130320;27;20599;-55
2023/10/06 02:43:47;;;;;;;2.75;0.80;;;11.00;26.60;;;;;;5138739;27;20824;-58
2023/10/06 02:46:15;;;;;;;1.40;0.88;;;11.00;25.00;;;;;;5138790;27;20522;-57
2023/10/06 02:48:48;;;;;;;2.65;1.00;;;10.90;21.20;;;;;;5138886;27;20710;-57
2023/10/06 02:51:30;;;;;;;1.60;0.80;;;10.90;17.80;;;;;;5138037;27;20419;-57
2023/10/06 02:54:13;;;;;;;3.57;1.00;;;10.90;23.30;;;;;;5137275;27;20446;-56
2023/10/06 02:56:40;;;;;;;2.70;1.00;;;10.90;25.10;;;;;;5138087;27;20422;-58
2023/10/06 02:59:20;;;;;;;3.95;1.10;;;10.90;20.40;;;;;;5137999;27;20505;-57
2023/10/06 03:01:51;;;;;;;1.83;0.90;;;10.90;16.60;;;;;;5138187;27;21041;-56
2023/10/06 03:04:21;;;;;;;2.13;1.10;;;10.80;27.90;;;;;;5138312;27;20837;-57
2023/10/06 03:06:53;;;;;;;1.75;0.90;;;10.70;35.10;;;;;;5137254;27;20464;-57
2023/10/06 03:09:27;;;;;;;2.92;1.00;;;10.70;44.40;;;;;;5138016;27;20894;-56
2023/10/06 03:11:58;;;;;;;1.97;1.00;;;10.60;51.40;;;;;;5137533;27;20422;-58
2023/10/06 03:14:37;;;;;;;3.83;0.90;;;10.70;62.60;;;;;;5137508;27;20426;-58
2023/10/06 03:17:09;;;;;;;2.10;1.30;;;10.70;67.60;;;;;;5137973;27;20410;-58
2023/10/06 03:19:40;;;;;;;2.20;1.00;;;10.70;59.10;;;;;;5137794;27;20426;-57
2023/10/06 03:22:10;;;;;;;3.67;1.00;;;10.70;57.70;;;;;;5137956;27;20859;-58
2023/10/06 03:24:45;;;;;;;2.07;1.00;;;10.70;51.00;;;;;;5138869;27;20571;-55
2023/10/06 03:27:16;;;;;;;1.90;0.80;;;10.70;35.10;;;;;;5138236;27;20706;-55
2023/10/06 03:29:51;;;;;;;2.97;0.90;;;10.70;17.50;;;;;;5123327;27;20443;-53
2023/10/06 03:32:28;;;;;;;3.77;1.00;;;10.60;16.00;;;;;;5076271;28;20416;-55
2023/10/06 03:34:58;;;;;;;3.20;0.90;;;10.60;18.30;;;;;;5075837;28;20427;-55
2023/10/06 03:37:44;;;;;;;3.65;1.00;;;10.50;20.60;;;;;;5076308;28;20473;-57
2023/10/06 03:40:21;;;;;;;1.70;0.90;;;10.50;24.10;;;;;;5076011;28;20708;-57
2023/10/06 03:42:48;;;;;;;2.40;1.00;;;10.50;39.10;;;;;;5074902;28;20839;-58
2023/10/06 03:45:31;;;;;;;3.35;0.90;;;10.50;51.00;;;;;;5074940;28;20424;-60
2023/10/06 03:48:10;;;;;;;1.73;0.80;;;10.50;49.00;;;;;;5074768;28;20435;-57
2023/10/06 03:50:39;;;;;;;3.15;1.10;;;10.60;45.10;;;;;;5073955;28;20420;-57
2023/10/06 03:53:09;;;;;;;2.40;0.80;;;10.80;19.70;;;;;;5074564;28;20517;-57
2023/10/06 03:55:39;;;;;;;3.10;0.80;;;10.80;3.00;;;;;;5073419;28;20431;-55
2023/10/06 03:58:08;;;;;;;1.95;0.80;;;10.80;1.00;;;;;;5074970;28;20854;-57
2023/10/06 04:00:38;;;;;;;1.40;0.70;;;10.80;1.00;;;;;;5075331;28;20439;-55
2023/10/06 04:03:09;;;;;;;1.90;0.80;;;10.80;1.00;;;;;;5075507;28;20431;-58
2023/10/06 04:05:37;;;;;;;1.60;0.80;;;10.80;1.00;;;;;;5075259;28;20814;-55
2023/10/06 04:08:11;;;;;;;1.95;0.80;;;10.70;1.00;;;;;;5075508;28;20434;-56
2023/10/06 04:10:40;;;;;;;2.53;0.85;;;10.70;1.00;;;;;;5075503;28;20747;-55
2023/10/06 04:13:10;;;;;;;1.48;0.73;;;10.70;1.00;;;;;;5075808;28;20434;-58
2023/10/06 04:15:38;;;;;;;1.80;0.80;;;10.70;1.00;;;;;;5075850;28;20463;-56
2023/10/06 04:18:09;;;;;;;2.90;0.90;;;10.60;1.00;;;;;;5075299;28;20435;-58
2023/10/06 04:20:37;;;;;;;4.50;1.00;;;10.60;1.00;;;;;;5074059;28;20416;-58
2023/10/06 04:23:05;;;;;;;1.65;0.90;;;10.50;1.00;;;;;;5073584;28;20819;-56
2023/10/06 04:25:37;;;;;;;1.58;0.80;;;10.50;1.00;;;;;;5074620;28;20419;-57
2023/10/06 04:28:07;;;;;;;2.88;1.00;;;10.50;1.00;;;;;;5074315;28;20550;-55
2023/10/06 04:30:35;;;;;;;4.50;1.10;;;10.50;1.00;;;;;;5073176;28;20423;-57
2023/10/06 04:33:03;;;;;;;3.30;1.10;;;10.50;1.00;;;;;;5073145;28;20481;-58
2023/10/06 04:35:32;;;;;;;3.15;1.00;;;10.50;3.50;;;;;;5072533;28;20872;-56
2023/10/06 04:38:00;;;;;;;2.00;0.85;;;10.50;15.70;;;;;;5073334;28;20926;-57
2023/10/06 04:40:27;;;;;;;3.60;1.02;;;10.40;34.40;;;;;;5073250;28;20423;-57
2023/10/06 04:42:56;;;;;;;3.08;1.35;;;10.30;46.30;;;;;;5073044;28;20799;-58
2023/10/06 04:45:24;;;;;;;2.60;1.00;;;10.30;56.50;;;;;;5072400;28;20564;-57
2023/10/06 04:47:53;;;;;;;2.95;1.10;;;10.30;68.30;;;;;;5073927;28;20432;-56
2023/10/06 04:50:20;;;;;;;4.78;1.10;;;10.30;71.90;;;;;;5074324;28;20714;-57
2023/10/06 04:52:47;;;;;;;2.03;1.20;;;10.30;72.80;;;;;;5073228;28;20419;-56
2023/10/06 04:55:16;;;;;;;1.80;1.00;;;10.30;62.30;;;;;;5072974;28;20435;-58
2023/10/06 04:57:44;;;;;;;4.70;1.30;;;10.30;59.20;;;;;;5073889;28;20866;-57
2023/10/06 05:00:15;;;;;;;2.50;1.13;;;10.30;57.00;;;;;;5072900;28;20432;-57
2023/10/06 05:02:47;;;;;;;2.40;1.00;;;10.20;63.90;;;;;;5071428;28;20466;-56
2023/10/06 05:05:19;;;;;;;2.50;1.00;;;10.20;78.90;;;;;;5070658;28;20404;-55
2023/10/06 05:07:46;;;;;;;2.90;1.10;;;10.20;73.50;;;;;;5071854;28;20506;-58
2023/10/06 05:10:14;;;;;;;2.28;1.10;;;10.10;78.60;;;;;;5072079;28;20442;-57
2023/10/06 05:12:42;;;;;;;4.35;1.17;;;10.00;89.60;;;;;;5071596;28;20553;-55
2023/10/06 05:15:15;;;;;;;2.45;1.00;;;9.90;98.60;;;;;;5072889;28;20432;-56
2023/10/06 05:17:43;;;;;;;4.82;1.20;;;9.90;99.90;;;;;;5072484;28;20436;-56
2023/10/06 05:20:19;;;;;;;3.70;1.00;;;9.90;99.90;;;;;;5074051;28;20474;-56
2023/10/06 05:22:48;;;;;;;4.47;1.15;;;9.80;99.90;;;;;;5073082;28;20503;-57
2023/10/06 05:25:15;;;;;;;4.05;1.20;;;9.80;99.90;;;;;;5074261;28;20419;-57
2023/10/06 05:27:44;;;;;;;4.00;1.10;;;9.80;99.90;;;;;;5072841;28;20529;-56
2023/10/06 05:30:13;;;;;;;3.70;1.10;;;9.70;99.90;;;;;;5072852;28;20920;-58
2023/10/06 05:32:42;;;;;;;1.98;1.10;;;9.70;99.90;;;;;;5072835;28;20431;-57
2023/10/06 05:35:13;;;;;;;2.70;1.30;;;9.70;99.90;;;;;;5071919;28;20419;-56
2023/10/06 05:37:43;;;;;;;2.92;1.30;;;9.70;99.90;;;;;;5072479;28;20431;-57
2023/10/06 05:40:15;;;;;;;2.92;1.00;;;9.60;99.90;;;;;;5073021;28;20424;-57
2023/10/06 05:42:43;;;;;;;4.80;1.20;;;9.50;99.90;;;;;;5072059;28;20434;-55
2023/10/06 05:45:15;;;;;;;1.90;1.00;;;9.60;99.90;;;;;;5072466;28;20421;-57
2023/10/06 05:47:46;;;;;;;3.77;1.40;;;9.60;99.90;;;;;;5071803;28;20431;-57
2023/10/06 05:50:18;;;;;;;2.42;1.10;;;9.60;99.90;;;;;;5066188;28;20415;-57
2023/10/06 05:52:51;;;;;;;2.37;1.10;;;9.60;99.90;;;;;;5064774;28;20442;-58
2023/10/06 05:55:22;;;;;;;2.57;1.20;;;9.60;99.90;;;;;;5064901;28;20493;-54
2023/10/06 05:57:52;;;;;;;2.33;1.20;;;9.70;99.90;;;;;;5065277;28;20856;-55
2023/10/06 06:00:20;;;;;;;3.60;1.10;;;9.70;99.90;;;;;;5078383;28;20701;-54
2023/10/06 06:02:48;;;;;;;4.20;1.30;;;9.70;99.90;;;;;;5073750;28;20521;-55
2023/10/06 06:05:16;;;;;;;3.00;1.10;;;9.80;99.90;;;;;;5073657;28;20434;-59
2023/10/06 06:07:44;;;;;;;2.92;1.10;;;9.90;99.90;;;;;;5070287;28;20699;-55
2023/10/06 06:10:14;;;;;;;2.50;1.10;;;9.90;99.90;;;;;;5070518;28;20434;-59
2023/10/06 06:12:42;;;;;;;5.32;1.10;;;10.00;99.50;;;;;;5073686;28;20934;-58
2023/10/06 06:15:11;;;;;;;4.20;1.10;;;10.10;97.40;;;;;;5075551;28;20525;-56
2023/10/06 06:17:40;;;;;;;3.15;1.10;;;10.20;93.50;;;;;;5075822;28;20431;-59
2023/10/06 06:20:09;;;;;;;4.85;1.10;;;10.30;62.20;;;;;;5075642;28;20431;-59
2023/10/06 06:22:40;;;;;;;3.90;1.10;;;10.40;44.70;;;;;;5072657;28;20439;-58
2023/10/06 06:25:09;;;;;;;3.30;1.00;;;10.40;9.20;;;;;;5066504;28;20766;-59
2023/10/06 06:27:36;;;;;;;2.30;1.00;;;10.40;1.00;;;;;;5074693;28;20473;-59
2023/10/06 06:30:04;;;;;;;3.10;0.90;;;10.30;1.00;;;;;;5073917;28;20459;-58
2023/10/06 06:32:32;;;;;;;3.00;1.00;;;10.20;1.00;;;;;;5070361;28;20424;-59
2023/10/06 06:34:59;;;;;;;1.63;0.90;;;10.40;9.40;;;;;;5074805;28;20424;-59
2023/10/06 06:37:27;;;;;;;3.10;1.00;;;10.60;1.00;;;;;;5075060;28;20430;-59
2023/10/06 06:39:56;;;;;;;3.00;0.90;;;10.90;1.00;;;;;;5072781;28;20439;-58
2023/10/06 06:42:23;;;;;;;2.05;0.90;;;11.20;1.00;;;;;;5075014;28;20437;-57
2023/10/06 06:44:51;;;;;;;3.80;0.98;;;11.50;1.00;;;;;;5071903;28;20443;-59
2023/10/06 06:47:18;;;;;;;1.95;1.00;;;11.50;1.00;;;;;;5075299;28;20412;-58
2023/10/06 06:49:48;;;;;;;2.17;0.80;;;11.50;1.00;;;;;;5073968;28;20447;-58
2023/10/06 06:52:15;;;;;;;3.07;0.90;;;11.60;1.00;;;;;;5069712;28;20493;-58
2023/10/06 06:54:46;;;;;;;2.50;0.82;;;11.60;1.00;;;;;;5074450;28;20423;-57
2023/10/06 06:57:17;;;;;;;1.70;0.90;;;11.60;1.00;;;;;;5074135;28;20431;-58
2023/10/06 06:59:45;;;;;;;4.82;1.10;;;11.50;1.00;;;;;;5073572;28;20431;-57
2023/10/06 07:02:12;;;;;;;2.40;1.00;;;11.20;1.00;;;;;;5074303;28;20420;-57
2023/10/06 07:04:40;;;;;;;2.15;0.90;;;11.00;1.00;;;;;;5073799;28;20505;-58
2023/10/06 07:07:07;;;;;;;3.83;1.73;;;10.80;1.00;;;;;;5073084;28;20477;-60
2023/10/06 07:09:35;;;;;;;2.33;1.10;;;10.60;1.00;;;;;;5071880;28;20835;-58
2023/10/06 07:12:03;;;;;;;3.40;1.10;;;10.60;1.00;;;;;;5068960;28;20423;-59
2023/10/06 07:14:32;;;;;;;3.08;1.00;;;11.10;1.00;;;;;;5069644;28;20829;-60
2023/10/06 07:17:00;;;;;;;3.00;1.10;;;11.10;1.00;;;;;;5070566;28;20847;-59
2023/10/06 07:19:28;;;;;;;1.77;0.90;;;11.10;1.00;;;;;;5073108;28;20424;-58
2023/10/06 07:21:56;;;;;;;5.25;1.20;;;11.20;1.00;;;;;;5073936;28;20853;-59
2023/10/06 07:24:24;;;;;;;3.55;1.60;;;11.20;1.00;;;;;;5073219;28;20435;-60
2023/10/06 07:26:51;;;;;;;3.00;1.10;;;11.30;1.00;;;;;;5074482;28;20428;-59
2023/10/06 07:29:20;;;;;;;4.45;1.25;;;11.40;1.00;;;;;;5067323;28;20510;-59
2023/10/06 07:31:54;;;;;;;2.35;1.10;;;11.40;1.00;;;;;;5047055;28;21035;-60
2023/10/06 07:34:21;;;;;;;4.78;1.13;;;11.50;1.00;;;;;;5051019;28;20443;-60
2023/10/06 07:36:48;;;;;;;3.60;1.20;;;11.60;1.00;;;;;;5049659;28;20950;-59
2023/10/06 07:39:20;;;;;;;3.67;1.27;;;11.60;1.00;;;;;;5049577;28;20829;-59
2023/10/06 07:41:48;;;;;;;5.10;1.40;;;11.70;1.00;;;;;;5050734;28;20868;-57
2023/10/06 07:44:15;;;;;;;2.30;1.10;;;11.90;1.00;;;;;;5052642;28;20429;-58
2023/10/06 07:46:42;;;;;;;2.70;1.20;;;12.00;1.00;;;;;;5052971;28;20441;-58
2023/10/06 07:49:11;;;;;;;3.40;1.25;;;12.10;1.00;;;;;;5040496;28;20437;-57
2023/10/06 07:51:38;;;;;;;3.65;1.20;;;12.20;1.00;;;;;;5051465;28;20512;-57
2023/10/06 07:54:06;;;;;;;2.17;1.10;;;12.30;1.00;;;;;;5051999;28;20952;-57
2023/10/06 07:56:33;;;;;;;2.90;1.10;;;12.40;1.00;;;;;;5052398;28;20427;-55
2023/10/06 07:59:01;;;;;;;2.50;1.10;;;12.50;1.00;;;;;;5039887;28;20480;-58
2023/10/06 08:01:28;;;;;;;1.90;1.00;;;12.70;1.00;;;;;;5044302;28;20465;-63
2023/10/06 08:03:55;;;;;;;3.75;1.30;;;12.90;1.00;;;;;;5045256;28;20450;-57
2023/10/06 08:06:24;;;;;;;2.38;1.30;;;12.90;1.00;;;;;;5055053;28;20494;-55
2023/10/06 08:08:51;;;;;;;2.72;1.30;;;13.00;1.00;;;;;;5052352;28;20517;-56
2023/10/06 08:11:20;;;;;;;3.25;1.30;;;13.10;1.00;;;;;;5052170;28;20524;-54
2023/10/06 08:13:47;;;;;;;3.00;1.20;;;13.00;99.90;;;;;;5052165;28;20429;-55
2023/10/06 08:16:14;;;;;;;3.30;1.35;;;13.00;1.00;;;;;;5054565;28;20441;-56
2023/10/06 08:18:42;;;;;;;4.20;1.70;;;13.00;1.00;;;;;;5057949;28;20824;-55
2023/10/06 08:21:10;;;;;;;2.38;1.50;;;13.20;1.00;;;;;;5049600;28;20463;-57
2023/10/06 08:23:39;;;;;;;2.95;1.52;;;13.20;99.90;;;;;;5046105;28;20544;-56
2023/10/06 08:26:08;;;;;;;4.10;1.40;;;13.10;99.90;;;;;;5051872;28;20441;-57
2023/10/06 08:28:35;;;;;;;1.80;1.10;;;13.20;99.90;;;;;;5052434;28;20833;-57
2023/10/06 08:31:02;;;;;;;3.50;1.40;;;13.20;99.90;;;;;;5068019;28;20463;-56
2023/10/06 08:33:30;;;;;;;2.75;1.30;;;13.40;99.90;;;;;;5074029;28;20518;-57
2023/10/06 08:35:58;;;;;;;5.57;1.00;;;13.50;1.10;;;;;;5069377;28;20742;-51
2023/10/06 08:38:25;;;;;;;1.95;1.10;;;13.50;45.10;;;;;;5071426;28;20575;-56
2023/10/06 08:40:58;;;;;;;2.38;1.25;;;13.70;1.00;;;;;;5056469;28;20494;-54
2023/10/06 08:43:28;;;;;;;3.10;1.20;;;13.70;1.00;;;;;;5072567;28;20518;-57
2023/10/06 08:45:59;;;;;;;2.50;1.10;;;13.90;99.90;;;;;;5070814;28;20534;-54
2023/10/06 08:48:31;;;;;;;2.25;1.38;;;13.90;1.00;;;;;;5072326;28;20453;-53
2023/10/06 08:51:03;;;;;;;2.70;1.10;;;13.90;1.00;;;;;;5048690;28;20742;-53
2023/10/06 08:53:33;;;;;;;4.10;1.60;;;14.10;1.00;;;;;;5071026;28;20415;-52
2023/10/06 08:56:02;;;;;;;4.32;1.17;;;14.20;99.90;;;;;;5072418;28;20431;-52
2023/10/06 08:58:29;;;;;;;3.00;1.00;;;14.30;1.00;;;;;;5072030;28;20901;-52
2023/10/06 09:00:56;;;;;;;2.60;1.10;;;14.30;99.90;;;;;;5071011;28;20427;-49
2023/10/06 09:03:24;;;;;;;3.50;1.20;;;14.40;1.00;;;;;;5070967;28;20427;-54
2023/10/06 09:05:51;;;;;;;2.58;1.00;;;14.50;99.90;;;;;;5070383;28;20730;-51
2023/10/06 09:08:18;;;;;;;3.72;1.08;;;14.50;99.90;;;;;;5070560;28;20416;-49
2023/10/06 09:10:50;;;;;;;2.40;1.10;;;14.70;69.20;;;;;;5071932;28;20840;-53
2023/10/06 09:13:21;;;;;;;2.72;1.10;;;14.70;1.00;;;;;;5069965;28;20802;-52
2023/10/06 09:15:59;;;;;;;3.72;1.20;;;14.70;99.90;;;;;;5069722;28;20427;-52
2023/10/06 09:18:28;;;;;;;3.60;1.10;;;14.80;1.00;;;;;;5070493;28;20439;-49
2023/10/06 09:20:56;;;;;;;2.15;1.10;;;15.00;99.90;;;;;;5056162;28;20708;-52
2023/10/06 09:23:31;;;;;;;3.00;1.10;;;15.20;1.00;;;;;;5063386;28;20677;-52
2023/10/06 09:26:00;;;;;;;1.90;1.10;;;15.30;1.00;;;;;;5063929;28;20422;-51
2023/10/06 09:28:30;;;;;;;2.70;1.10;;;15.30;1.00;;;;;;5070974;28;20431;-49
2023/10/06 09:31:00;;;;;;;3.97;1.20;;;15.30;1.00;;;;;;5056892;28;20731;-49
2023/10/06 09:33:29;;;;;;;4.05;1.00;;;15.40;1.00;;;;;;5071567;28;20427;-53
2023/10/06 09:36:06;;;;;;;2.80;1.00;;;15.40;1.00;;;;;;5073053;28;20438;-52
2023/10/06 09:38:34;;;;;;;1.92;1.00;;;15.50;1.00;;;;;;5074486;28;20420;-49
2023/10/06 09:41:01;;;;;;;1.92;1.10;;;15.60;1.00;;;;;;5074313;28;20418;-56
2023/10/06 09:43:33;;;;;;;3.70;1.00;;;15.90;99.90;;;;;;5072461;28;20503;-52
2023/10/06 09:46:06;;;;;;;5.32;1.30;;;16.10;10.20;;;;;;5073492;28;20415;-52
2023/10/06 09:48:36;;;;;;;1.63;0.90;;;16.20;1.00;;;;;;5076161;28;20434;-50
2023/10/06 09:51:09;;;;;;;2.17;1.00;;;16.40;1.00;;;;;;5074501;28;20841;-48
2023/10/06 09:53:39;;;;;;;2.60;1.20;;;16.50;1.00;;;;;;5071797;28;20827;-50
2023/10/06 09:56:09;;;;;;;2.45;1.20;;;16.70;1.00;;;;;;5073918;28;20760;-52
2023/10/06 09:58:40;;;;;;;2.30;0.90;;;16.90;1.00;;;;;;5075423;28;20435;-52
2023/10/06 10:01:10;;;;;;;2.58;1.00;;;16.90;1.00;;;;;;5074520;28;20514;-52
2023/10/06 10:03:38;;;;;;;2.28;1.10;;;17.10;99.90;;;;;;5073969;28;20455;-53
2023/10/06 10:06:06;;;;;;;4.40;1.00;;;17.20;99.90;;;;;;5075638;28;20443;-51
2023/10/06 10:08:34;;;;;;;2.70;1.02;;;17.30;99.90;;;;;;5071971;28;20462;-54
2023/10/06 10:11:05;;;;;;;3.55;1.35;;;17.50;99.90;;;;;;5073042;28;20491;-54
2023/10/06 10:13:54;;;;;;;3.10;1.10;;;17.60;99.90;;;;;;5071102;28;20462;-53
2023/10/06 10:16:39;;;;;;;2.03;1.00;;;17.60;99.90;;;;;;5069164;28;20798;-54
2023/10/06 10:19:12;;;;;;;2.13;1.00;;;17.70;99.90;;;;;;5058463;28;20514;-50
2023/10/06 10:21:41;;;;;;;2.15;1.00;;;18.00;99.90;;;;;;5071908;28;20429;-54
2023/10/06 10:24:13;;;;;;;3.50;1.00;;;18.20;99.90;;;;;;5073129;28;20734;-53
2023/10/06 10:26:41;;;;;;;2.47;0.90;;;18.40;99.90;;;;;;5073698;28;20424;-49
2023/10/06 10:29:31;;;;;;;2.30;1.00;;;18.40;99.90;;;;;;5071404;28;20830;-51
2023/10/06 10:32:14;;;;;;;2.45;0.85;;;18.70;71.00;;;;;;5031889;28;20526;-58
2023/10/06 10:35:07;;;;;;;1.67;0.80;;;18.90;52.40;;;;;;5031351;28;20930;-57
2023/10/06 10:37:34;;;;;;;1.48;0.93;;;19.00;28.00;;;;;;5031433;28;20462;-57
2023/10/06 10:40:03;;;;;;;2.28;1.10;;;19.10;9.40;;;;;;5030619;28;20429;-57
2023/10/06 10:42:42;;;;;;;1.77;0.93;;;19.40;1.00;;;;;;5029526;28;20498;-56
2023/10/06 10:45:43;;;;;;;1.67;1.10;;;19.60;1.00;;;;;;5020991;28;20925;-55
2023/10/06 10:48:14;;;;;;;2.90;1.00;;;19.60;1.00;;;;;;5030465;28;20438;-57
2023/10/06 10:51:01;;;;;;;2.40;1.00;;;19.70;1.00;;;;;;5029784;28;20435;-58
2023/10/06 10:53:37;;;;;;;2.40;1.10;;;19.80;1.00;;;;;;5027912;28;20560;-57
2023/10/06 10:56:06;;;;;;;2.80;1.00;;;19.80;1.00;;;;;;5022968;28;20430;-57
2023/10/06 10:58:55;;;;;;;4.00;1.00;;;19.80;1.00;;;;;;5023294;28;20715;-58
2023/10/06 11:01:27;;;;;;;2.80;1.10;;;20.10;1.00;;;;;;5028685;28;20459;-57
2023/10/06 11:04:21;;;;;;;2.40;1.00;;;20.20;1.00;;;;;;5025077;28;20915;-55
2023/10/06 11:06:50;;;;;;;1.83;0.90;;;20.30;1.00;;;;;;5030969;28;20431;-57
2023/10/06 11:09:29;;;;;;;3.70;0.93;;;20.40;1.00;;;;;;5034398;28;20529;-56
2023/10/06 11:11:58;;;;;;;1.70;1.00;;;20.50;1.00;;;;;;5034532;28;20611;-58
2023/10/06 11:14:27;;;;;;;2.40;0.90;;;20.70;1.00;;;;;;5031512;28;20797;-58
2023/10/06 11:17:02;;;;;;;1.80;0.90;;;20.90;1.00;;;;;;5034181;28;20462;-58
2023/10/06 11:19:32;;;;;;;3.15;0.90;;;20.90;1.00;;;;;;5034594;28;20443;-57
2023/10/06 11:22:10;;;;;;;2.70;1.00;;;20.90;1.00;;;;;;5034933;28;20431;-58
2023/10/06 11:24:39;;;;;;;1.80;1.00;;;20.40;1.00;;;;;;5027247;28;20932;-58
2023/10/06 11:27:16;;;;;;;2.20;0.90;;;20.40;1.00;;;;;;5025567;28;20923;-57
2023/10/06 11:29:44;;;;;;;2.90;1.00;;;20.60;1.00;;;;;;5032694;28;20508;-58
2023/10/06 11:32:12;;;;;;;2.17;0.90;;;20.80;1.00;;;;;;5065148;28;20484;-58
2023/10/06 11:34:43;;;;;;;2.10;1.00;;;21.00;1.00;;;;;;5071388;28;20817;-56
2023/10/06 11:37:11;;;;;;;2.70;0.80;;;21.20;1.00;;;;;;5070993;28;20474;-57
2023/10/06 11:39:39;;;;;;;1.90;0.90;;;21.20;1.00;;;;;;5065377;28;20436;-57
2023/10/06 11:42:33;;;;;;;2.90;1.00;;;21.20;1.00;;;;;;5069333;28;20439;-55
2023/10/06 11:45:06;;;;;;;3.65;1.00;;;21.20;1.00;;;;;;5065947;28;20450;-53
2023/10/06 11:47:42;;;;;;;2.53;0.80;;;21.20;1.00;;;;;;5071221;28;20482;-58
2023/10/06 11:50:23;;;;;;;2.13;1.00;;;21.20;1.00;;;;;;5072303;28;20420;-59
2023/10/06 11:52:51;;;;;;;2.42;0.73;;;20.80;1.00;;;;;;5071643;28;20435;-58
2023/10/06 11:55:31;;;;;;;1.80;0.98;;;20.70;1.00;;;;;;5070280;28;20734;-58
2023/10/06 11:58:00;;;;;;;3.30;1.10;;;20.80;1.00;;;;;;5068235;28;20442;-58
2023/10/06 12:00:43;;;;;;;2.53;0.90;;;20.70;1.00;;;;;;5066606;28;20893;-58
2023/10/06 12:03:11;;;;;;;1.92;0.90;;;20.70;1.00;;;;;;5069454;28;20463;-55
2023/10/06 12:05:42;;;;;;;3.40;0.80;;;20.80;1.00;;;;;;5068784;28;20830;-58
2023/10/06 12:08:11;;;;;;;2.50;0.90;;;20.80;1.00;;;;;;5066602;28;20438;-59
2023/10/06 12:10:50;;;;;;;2.28;0.90;;;20.70;1.00;;;;;;5067407;28;20870;-58
2023/10/06 12:13:17;;;;;;;1.60;0.90;;;20.70;1.00;;;;;;5066129;28;20501;-58
2023/10/06 12:15:45;;;;;;;1.80;0.80;;;20.80;1.00;;;;;;5067961;28;20936;-59
2023/10/06 12:18:13;;;;;;;1.88;0.80;;;21.00;1.00;;;;;;5069451;28;21024;-58
2023/10/06 12:20:42;;;;;;;1.83;0.90;;;20.90;1.00;;;;;;5066775;28;20441;-58
2023/10/06 12:23:10;;;;;;;1.58;0.80;;;20.80;1.00;;;;;;5064382;28;20735;-56
2023/10/06 12:25:39;;;;;;;1.80;0.80;;;20.60;1.00;;;;;;5065840;28;20443;-58
2023/10/06 12:28:06;;;;;;;1.92;0.80;;;20.80;1.00;;;;;;5057701;28;20445;-58
2023/10/06 12:30:33;;;;;;;2.70;0.90;;;20.80;1.00;;;;;;5064229;28;20569;-58
2023/10/06 12:33:01;;;;;;;1.77;0.90;;;20.80;1.00;;;;;;5066191;28;20793;-58
2023/10/06 12:35:30;;;;;;;1.88;0.90;;;20.80;1.00;;;;;;5070436;28;20432;-58
2023/10/06 12:37:58;;;;;;;2.25;0.80;;;20.70;1.00;;;;;;5066089;28;20431;-58
2023/10/06 12:40:26;;;;;;;1.67;0.90;;;20.60;1.00;;;;;;5065997;28;20533;-58
2023/10/06 12:42:53;;;;;;;2.55;0.80;;;20.70;1.00;;;;;;5070244;28;20505;-58
2023/10/06 12:45:21;;;;;;;1.60;0.90;;;20.60;1.00;;;;;;5069668;28;20439;-58
2023/10/06 12:47:50;;;;;;;1.60;0.80;;;20.70;1.00;;;;;;5070458;28;21080;-59
2023/10/06 12:50:21;;;;;;;2.37;0.90;;;20.60;1.00;;;;;;5065059;28;20747;-57
2023/10/06 12:52:51;;;;;;;2.50;0.80;;;20.40;1.00;;;;;;5065486;28;20439;-59
2023/10/06 12:55:24;;;;;;;2.65;0.80;;;20.40;1.00;;;;;;5068056;28;20431;-59
2023/10/06 12:57:53;;;;;;;1.58;0.70;;;20.50;1.00;;;;;;5068866;28;20435;-58
2023/10/06 13:00:20;;;;;;;2.50;0.80;;;20.60;1.00;;;;;;5065346;28;20538;-59
2023/10/06 13:02:48;;;;;;;1.63;0.77;;;20.70;1.00;;;;;;5065449;28;20465;-59
2023/10/06 13:05:18;;;;;;;1.30;0.90;;;20.70;1.00;;;;;;5069090;28;20448;-58
2023/10/06 13:07:47;;;;;;;1.30;0.80;;;20.60;1.00;;;;;;5070245;28;20431;-58
2023/10/06 13:10:15;;;;;;;4.05;0.90;;;20.60;1.00;;;;;;5069070;28;20520;-58